sensor_id;sensor_type;location;lat;lon;timestamp;P1;durP1;ratioP1;P2;durP2;ratioP2
9094;SDS011;4583;49.796;9.902;2023-08-08T00:09:33;6.43;;;3.40;;
9094;SDS011;4583;49.796;9.902;2023-08-08T00:19:35;4.90;;;3.10;;
9094;SDS011;4583;49.796;9.902;2023-08-08T00:29:37;6.50;;;3.37;;
9094;SDS011;4583;49.796;9.902;2023-08-08T00:39:38;5.57;;;3.03;;
9094;SDS011;4583;49.796;9.902;2023-08-08T00:49:43;5.83;;;3.07;;
9094;SDS011;4583;49.796;9.902;2023-08-08T00:59:47;4.27;;;2.83;;
9094;SDS011;4583;49.796;9.902;2023-08-08T01:09:59;7.33;;;3.30;;
9094;SDS011;4583;49.796;9.902;2023-08-08T01:20:09;4.60;;;2.93;;
9094;SDS011;4583;49.796;9.902;2023-08-08T01:30:11;4.50;;;2.87;;
9094;SDS011;4583;49.796;9.902;2023-08-08T01:40:15;6.57;;;2.73;;
9094;SDS011;4583;49.796;9.902;2023-08-08T01:50:18;4.47;;;3.00;;
9094;SDS011;4583;49.796;9.902;2023-08-08T02:00:19;4.50;;;3.50;;
9094;SDS011;4583;49.796;9.902;2023-08-08T02:10:21;5.97;;;2.87;;
9094;SDS011;4583;49.796;9.902;2023-08-08T02:20:23;7.83;;;3.13;;
9094;SDS011;4583;49.796;9.902;2023-08-08T02:30:25;4.57;;;2.60;;
9094;SDS011;4583;49.796;9.902;2023-08-08T02:40:27;3.70;;;2.70;;
9094;SDS011;4583;49.796;9.902;2023-08-08T02:50:28;6.27;;;3.00;;
9094;SDS011;4583;49.796;9.902;2023-08-08T03:00:30;3.80;;;2.43;;
9094;SDS011;4583;49.796;9.902;2023-08-08T03:10:32;3.10;;;2.00;;
9094;SDS011;4583;49.796;9.902;2023-08-08T03:20:33;5.63;;;1.93;;
9094;SDS011;4583;49.796;9.902;2023-08-08T03:30:36;1.97;;;1.83;;
9094;SDS011;4583;49.796;9.902;2023-08-08T03:40:39;2.93;;;2.00;;
9094;SDS011;4583;49.796;9.902;2023-08-08T03:50:40;3.17;;;1.80;;
9094;SDS011;4583;49.796;9.902;2023-08-08T04:00:42;2.30;;;1.70;;
9094;SDS011;4583;49.796;9.902;2023-08-08T04:10:47;2.30;;;1.83;;
9094;SDS011;4583;49.796;9.902;2023-08-08T04:20:49;3.67;;;1.70;;
9094;SDS011;4583;49.796;9.902;2023-08-08T04:30:51;5.13;;;1.63;;
9094;SDS011;4583;49.796;9.902;2023-08-08T04:40:52;2.63;;;1.77;;
9094;SDS011;4583;49.796;9.902;2023-08-08T04:50:54;2.07;;;1.60;;
9094;SDS011;4583;49.796;9.902;2023-08-08T05:00:56;2.40;;;1.83;;
9094;SDS011;4583;49.796;9.902;2023-08-08T05:10:58;6.07;;;2.13;;
9094;SDS011;4583;49.796;9.902;2023-08-08T05:21:00;2.23;;;1.70;;
9094;SDS011;4583;49.796;9.902;2023-08-08T05:31:01;8.97;;;2.10;;
9094;SDS011;4583;49.796;9.902;2023-08-08T05:41:03;2.80;;;1.70;;
9094;SDS011;4583;49.796;9.902;2023-08-08T05:51:05;2.60;;;1.43;;
9094;SDS011;4583;49.796;9.902;2023-08-08T06:01:07;2.20;;;1.53;;
9094;SDS011;4583;49.796;9.902;2023-08-08T06:11:12;2.37;;;1.57;;
9094;SDS011;4583;49.796;9.902;2023-08-08T06:21:15;4.90;;;1.40;;
9094;SDS011;4583;49.796;9.902;2023-08-08T06:31:17;3.43;;;1.70;;
9094;SDS011;4583;49.796;9.902;2023-08-08T06:41:19;3.40;;;1.50;;
9094;SDS011;4583;49.796;9.902;2023-08-08T06:51:21;3.80;;;1.50;;
9094;SDS011;4583;49.796;9.902;2023-08-08T07:01:23;2.23;;;1.60;;
9094;SDS011;4583;49.796;9.902;2023-08-08T07:11:25;2.63;;;1.80;;
9094;SDS011;4583;49.796;9.902;2023-08-08T07:21:27;3.37;;;1.70;;
9094;SDS011;4583;49.796;9.902;2023-08-08T07:31:28;1.83;;;1.50;;
9094;SDS011;4583;49.796;9.902;2023-08-08T07:41:30;1.70;;;1.50;;
9094;SDS011;4583;49.796;9.902;2023-08-08T07:51:32;6.90;;;1.40;;
9094;SDS011;4583;49.796;9.902;2023-08-08T08:01:34;1.80;;;1.20;;
9094;SDS011;4583;49.796;9.902;2023-08-08T08:11:35;1.60;;;1.30;;
9094;SDS011;4583;49.796;9.902;2023-08-08T08:21:37;2.27;;;1.30;;
9094;SDS011;4583;49.796;9.902;2023-08-08T08:31:39;2.00;;;1.33;;
9094;SDS011;4583;49.796;9.902;2023-08-08T08:41:41;3.90;;;1.60;;
9094;SDS011;4583;49.796;9.902;2023-08-08T08:51:44;2.77;;;1.50;;
9094;SDS011;4583;49.796;9.902;2023-08-08T09:01:46;3.03;;;1.10;;
9094;SDS011;4583;49.796;9.902;2023-08-08T09:11:49;9.27;;;5.33;;
9094;SDS011;4583;49.796;9.902;2023-08-08T09:21:52;2.63;;;1.50;;
9094;SDS011;4583;49.796;9.902;2023-08-08T09:31:54;6.20;;;1.50;;
9094;SDS011;4583;49.796;9.902;2023-08-08T09:41:56;2.77;;;1.40;;
9094;SDS011;4583;49.796;9.902;2023-08-08T09:51:58;1.37;;;1.20;;
9094;SDS011;4583;49.796;9.902;2023-08-08T10:02:00;2.03;;;1.40;;
9094;SDS011;4583;49.796;9.902;2023-08-08T10:12:05;3.50;;;1.60;;
9094;SDS011;4583;49.796;9.902;2023-08-08T10:22:08;1.30;;;1.20;;
9094;SDS011;4583;49.796;9.902;2023-08-08T10:32:10;2.87;;;1.30;;
9094;SDS011;4583;49.796;9.902;2023-08-08T10:42:23;1.20;;;1.10;;
9094;SDS011;4583;49.796;9.902;2023-08-08T10:52:26;2.70;;;1.30;;
9094;SDS011;4583;49.796;9.902;2023-08-08T11:02:27;3.70;;;1.50;;
9094;SDS011;4583;49.796;9.902;2023-08-08T11:12:29;2.10;;;1.60;;
9094;SDS011;4583;49.796;9.902;2023-08-08T11:22:31;2.67;;;1.40;;
9094;SDS011;4583;49.796;9.902;2023-08-08T11:32:33;3.63;;;1.70;;
9094;SDS011;4583;49.796;9.902;2023-08-08T11:42:35;3.37;;;1.37;;
9094;SDS011;4583;49.796;9.902;2023-08-08T11:52:41;3.17;;;1.40;;
9094;SDS011;4583;49.796;9.902;2023-08-08T12:02:43;3.33;;;1.40;;
9094;SDS011;4583;49.796;9.902;2023-08-08T12:12:45;3.13;;;1.50;;
9094;SDS011;4583;49.796;9.902;2023-08-08T12:22:53;3.47;;;1.60;;
9094;SDS011;4583;49.796;9.902;2023-08-08T12:32:54;3.03;;;1.70;;
9094;SDS011;4583;49.796;9.902;2023-08-08T12:42:56;2.13;;;1.60;;
9094;SDS011;4583;49.796;9.902;2023-08-08T12:52:58;2.93;;;1.50;;
9094;SDS011;4583;49.796;9.902;2023-08-08T13:03:00;3.43;;;1.60;;
9094;SDS011;4583;49.796;9.902;2023-08-08T13:13:03;3.43;;;1.60;;
9094;SDS011;4583;49.796;9.902;2023-08-08T13:23:05;3.67;;;1.50;;
9094;SDS011;4583;49.796;9.902;2023-08-08T13:33:07;2.33;;;1.70;;
9094;SDS011;4583;49.796;9.902;2023-08-08T13:43:09;2.07;;;1.50;;
9094;SDS011;4583;49.796;9.902;2023-08-08T13:53:10;4.87;;;1.97;;
9094;SDS011;4583;49.796;9.902;2023-08-08T14:03:12;4.73;;;1.80;;
9094;SDS011;4583;49.796;9.902;2023-08-08T14:13:16;2.97;;;1.70;;
9094;SDS011;4583;49.796;9.902;2023-08-08T14:23:17;2.63;;;1.47;;
9094;SDS011;4583;49.796;9.902;2023-08-08T14:33:19;2.37;;;1.30;;
9094;SDS011;4583;49.796;9.902;2023-08-08T14:43:21;2.40;;;1.53;;
9094;SDS011;4583;49.796;9.902;2023-08-08T14:53:24;3.90;;;1.40;;
9094;SDS011;4583;49.796;9.902;2023-08-08T15:03:26;3.37;;;1.70;;
9094;SDS011;4583;49.796;9.902;2023-08-08T15:13:28;2.30;;;1.37;;
9094;SDS011;4583;49.796;9.902;2023-08-08T15:23:30;3.20;;;1.50;;
9094;SDS011;4583;49.796;9.902;2023-08-08T15:33:32;2.13;;;1.30;;
9094;SDS011;4583;49.796;9.902;2023-08-08T15:43:34;3.13;;;1.70;;
9094;SDS011;4583;49.796;9.902;2023-08-08T15:53:36;7.53;;;1.53;;
9094;SDS011;4583;49.796;9.902;2023-08-08T16:03:38;3.83;;;1.40;;
9094;SDS011;4583;49.796;9.902;2023-08-08T16:13:39;2.83;;;1.60;;
9094;SDS011;4583;49.796;9.902;2023-08-08T16:23:41;5.73;;;2.00;;
9094;SDS011;4583;49.796;9.902;2023-08-08T16:33:43;3.07;;;1.53;;
9094;SDS011;4583;49.796;9.902;2023-08-08T16:43:46;1.60;;;1.30;;
9094;SDS011;4583;49.796;9.902;2023-08-08T16:53:53;3.40;;;1.40;;
9094;SDS011;4583;49.796;9.902;2023-08-08T17:03:55;4.07;;;1.43;;
9094;SDS011;4583;49.796;9.902;2023-08-08T17:13:57;2.73;;;1.70;;
9094;SDS011;4583;49.796;9.902;2023-08-08T17:23:59;4.47;;;1.60;;
9094;SDS011;4583;49.796;9.902;2023-08-08T17:34:01;2.13;;;1.30;;
9094;SDS011;4583;49.796;9.902;2023-08-08T17:44:06;4.00;;;1.37;;
9094;SDS011;4583;49.796;9.902;2023-08-08T17:54:10;3.37;;;1.50;;
9094;SDS011;4583;49.796;9.902;2023-08-08T18:04:13;5.83;;;1.67;;
9094;SDS011;4583;49.796;9.902;2023-08-08T18:14:14;2.83;;;1.57;;
9094;SDS011;4583;49.796;9.902;2023-08-08T18:24:16;3.43;;;1.50;;
9094;SDS011;4583;49.796;9.902;2023-08-08T18:34:18;5.67;;;1.60;;
9094;SDS011;4583;49.796;9.902;2023-08-08T18:44:19;4.70;;;1.80;;
9094;SDS011;4583;49.796;9.902;2023-08-08T18:54:21;4.50;;;1.67;;
9094;SDS011;4583;49.796;9.902;2023-08-08T19:04:23;2.53;;;1.70;;
9094;SDS011;4583;49.796;9.902;2023-08-08T19:14:25;4.47;;;1.80;;
9094;SDS011;4583;49.796;9.902;2023-08-08T19:24:28;5.20;;;2.00;;
9094;SDS011;4583;49.796;9.902;2023-08-08T19:34:29;3.03;;;1.77;;
9094;SDS011;4583;49.796;9.902;2023-08-08T19:44:31;3.63;;;1.70;;
9094;SDS011;4583;49.796;9.902;2023-08-08T19:54:33;4.63;;;1.80;;
9094;SDS011;4583;49.796;9.902;2023-08-08T20:04:35;4.27;;;2.00;;
9094;SDS011;4583;49.796;9.902;2023-08-08T20:14:37;3.70;;;1.83;;
9094;SDS011;4583;49.796;9.902;2023-08-08T20:24:38;5.10;;;2.43;;
9094;SDS011;4583;49.796;9.902;2023-08-08T20:34:40;16.27;;;2.33;;
9094;SDS011;4583;49.796;9.902;2023-08-08T20:44:42;4.00;;;1.87;;
9094;SDS011;4583;49.796;9.902;2023-08-08T20:54:44;4.20;;;1.80;;
9094;SDS011;4583;49.796;9.902;2023-08-08T21:04:45;5.30;;;2.13;;
9094;SDS011;4583;49.796;9.902;2023-08-08T21:14:47;4.40;;;2.13;;
9094;SDS011;4583;49.796;9.902;2023-08-08T21:24:49;3.60;;;2.00;;
9094;SDS011;4583;49.796;9.902;2023-08-08T21:34:52;4.97;;;1.77;;
9094;SDS011;4583;49.796;9.902;2023-08-08T21:44:53;6.43;;;2.10;;
9094;SDS011;4583;49.796;9.902;2023-08-08T21:54:55;2.37;;;1.80;;
9094;SDS011;4583;49.796;9.902;2023-08-08T22:04:57;4.83;;;2.30;;
9094;SDS011;4583;49.796;9.902;2023-08-08T22:14:58;4.17;;;2.10;;
9094;SDS011;4583;49.796;9.902;2023-08-08T22:25:00;2.73;;;1.90;;
9094;SDS011;4583;49.796;9.902;2023-08-08T22:35:02;4.13;;;2.03;;
9094;SDS011;4583;49.796;9.902;2023-08-08T22:45:05;4.77;;;2.30;;
9094;SDS011;4583;49.796;9.902;2023-08-08T22:55:07;5.67;;;2.10;;
9094;SDS011;4583;49.796;9.902;2023-08-08T23:05:10;6.40;;;2.30;;
9094;SDS011;4583;49.796;9.902;2023-08-08T23:15:11;5.77;;;2.27;;
9094;SDS011;4583;49.796;9.902;2023-08-08T23:25:13;4.87;;;2.30;;
9094;SDS011;4583;49.796;9.902;2023-08-08T23:35:15;8.03;;;2.97;;
9094;SDS011;4583;49.796;9.902;2023-08-08T23:45:17;4.40;;;2.80;;
9094;SDS011;4583;49.796;9.902;2023-08-08T23:55:19;4.17;;;2.57;;
